This is the latest recevied weather packets stored in our database for station/object HJ3GNC-15. If no packets are shown the sender has not sent any weather packets the latest 10 day(s).
| Time | Temp. | Humidity | Pressure | Rain* | Wind** | Luminosity | Snow |
|---|---|---|---|---|---|---|---|
| 1777678639 | 21.11° C | 83% | 1012 hPa | 0 mm | - | - | - |
| 1777677689 | 20.56° C | 83% | 1011 hPa | 0 mm | - | - | - |
| 1777676694 | 20° C | 83% | 1011 hPa | 0 mm | - | - | - |
| 1777675744 | 19.44° C | 83% | 1011 hPa | 0 mm | - | - | - |
| 1777674760 | 18.89° C | 83% | 1011 hPa | 0 mm | - | - | - |
| 1777673811 | 20° C | 74% | 1010 hPa | 0 mm | - | - | - |
| 1777672858 | 20° C | 75% | 1010 hPa | 0 mm | - | - | - |
| 1777671910 | 20° C | 75% | 1010 hPa | 0 mm | - | - | - |
| 1777670964 | 21.11° C | 63% | 1008 hPa | 0 mm | - | - | - |
| 1777670005 | 21.11° C | 63% | 1009 hPa | 0 mm | - | - | - |
| 1777669057 | 21.11° C | 64% | 1009 hPa | 0 mm | - | - | - |
| 1777668103 | 21.11° C | 64% | 1009 hPa | 0 mm | - | - | - |
| 1777667160 | 22.22° C | 59% | 1009 hPa | 0 mm | - | - | - |
| 1777666220 | 22.22° C | 59% | 1009 hPa | 0 mm | - | - | - |
| 1777665276 | 22.22° C | 60% | 1009 hPa | 0 mm | - | - | - |
| 1777664324 | 22.22° C | 60% | 1009 hPa | 0 mm | - | - | - |
| 1777663377 | 22.22° C | 62% | 1010 hPa | 0 mm | - | - | - |
| 1777662432 | 22.22° C | 61% | 1010 hPa | 0 mm | - | - | - |
| 1777661475 | 22.22° C | 62% | 1010 hPa | 0 mm | - | - | - |
| 1777660533 | 22.22° C | 62% | 1010 hPa | 0 mm | - | - | - |
| 1777659586 | 21.67° C | 64% | 1011 hPa | 0 mm | - | - | - |
| 1777658631 | 22.22° C | 57% | 1011 hPa | 0 mm | - | - | - |
| 1777657681 | 22.22° C | 57% | 1011 hPa | 0 mm | - | - | - |
| 1777656727 | 22.22° C | 57% | 1011 hPa | 0 mm | - | - | - |
| 1777655775 | 21.67° C | 64% | 1012 hPa | 0 mm | - | - | - |
* Rain latest hour (hover to see other rain measurements)
** Current wind speed in m/s (hover to see current wind gust speed)